createdAt,value
2019-02-08T00:00:44.313Z,98.20
2019-02-08T00:03:21.164Z,81.97
2019-02-08T00:05:57.945Z,105.70
2019-02-08T00:08:35.745Z,88.42
2019-02-08T00:11:12.520Z,76.02
2019-02-08T00:13:49.398Z,70.42
2019-02-08T00:16:26.163Z,72.08
2019-02-08T00:19:02.938Z,82.78
2019-02-08T00:21:39.822Z,71.60
2019-02-08T00:24:16.603Z,97.42
2019-02-08T00:26:53.382Z,82.22
2019-02-08T00:29:30.146Z,90.40
2019-02-08T00:32:06.867Z,72.65
2019-02-08T00:34:43.591Z,72.50
2019-02-08T00:37:20.685Z,68.37
2019-02-08T00:39:58.506Z,93.50
2019-02-08T00:42:35.570Z,106.10
2019-02-08T00:45:19.926Z,91.20
2019-02-08T00:47:56.686Z,86.95
2019-02-08T00:50:33.461Z,80.40
2019-02-08T00:53:10.249Z,76.17
2019-02-08T00:55:47.428Z,90.87
2019-02-08T00:58:24.197Z,101.40
2019-02-08T01:01:00.988Z,78.00
2019-02-08T01:03:38.875Z,86.45
2019-02-08T01:06:16.067Z,78.55
2019-02-08T01:08:52.845Z,70.52
2019-02-08T01:11:29.622Z,58.23
2019-02-08T01:14:06.391Z,68.02
2019-02-08T01:16:43.482Z,66.55
2019-02-08T01:19:20.142Z,67.53
2019-02-08T01:21:57.023Z,67.35
2019-02-08T01:24:33.808Z,79.58
2019-02-08T01:27:10.582Z,74.65
2019-02-08T01:29:47.244Z,75.30
2019-02-08T01:32:24.132Z,72.65
2019-02-08T01:35:00.795Z,72.30
2019-02-08T01:37:37.571Z,70.08
2019-02-08T01:40:20.493Z,106.17
2019-02-08T01:42:57.379Z,110.80
2019-02-08T01:45:34.429Z,103.65
2019-02-08T01:48:11.531Z,100.55
2019-02-08T01:50:48.318Z,103.10
2019-02-08T01:53:25.083Z,94.52
2019-02-08T01:56:01.860Z,95.60
2019-02-08T01:58:38.636Z,78.97
2019-02-08T02:01:15.520Z,79.40
2019-02-08T02:03:52.288Z,73.22
2019-02-08T02:06:29.576Z,82.95
2019-02-08T02:09:08.289Z,104.25
2019-02-08T02:11:44.977Z,89.58
2019-02-08T02:14:21.760Z,97.90
2019-02-08T02:16:58.537Z,135.75
2019-02-08T02:19:35.300Z,116.65
2019-02-08T02:22:11.972Z,115.85
2019-02-08T02:24:49.377Z,127.97
2019-02-08T02:27:26.150Z,124.53
2019-02-08T02:30:02.918Z,95.45
2019-02-08T02:32:39.907Z,82.92
2019-02-08T02:35:16.801Z,77.37
2019-02-08T02:37:53.555Z,75.70
2019-02-08T02:40:30.301Z,80.77
2019-02-08T02:43:07.309Z,71.45
2019-02-08T02:45:44.399Z,83.75
2019-02-08T02:48:21.158Z,95.03
2019-02-08T02:50:57.954Z,84.58
2019-02-08T02:53:34.826Z,79.82
2019-02-08T02:56:11.590Z,78.65
2019-02-08T02:58:48.364Z,70.57
2019-02-08T03:01:25.156Z,72.87
2019-02-08T03:04:01.919Z,79.87
2019-02-08T03:06:39.420Z,97.05
2019-02-08T03:09:17.216Z,82.33
2019-02-08T03:11:54.096Z,85.97
2019-02-08T03:14:30.865Z,90.62
2019-02-08T03:17:07.645Z,69.15
2019-02-08T03:19:44.426Z,73.70
2019-02-08T03:22:21.304Z,69.27
2019-02-08T03:24:58.082Z,85.85
2019-02-08T03:27:34.861Z,102.97
2019-02-08T03:30:22.910Z,92.07
2019-02-08T03:33:01.105Z,95.47
2019-02-08T03:35:37.763Z,91.05
2019-02-08T03:38:14.546Z,97.22
2019-02-08T03:40:51.328Z,83.00
2019-02-08T03:43:28.308Z,79.00
2019-02-08T03:46:05.087Z,82.57
2019-02-08T03:48:41.854Z,89.65
2019-02-08T03:51:18.631Z,87.02
2019-02-08T03:53:55.731Z,88.58
2019-02-08T03:56:32.483Z,83.58
2019-02-08T03:59:09.205Z,82.65
2019-02-08T04:01:45.941Z,116.10
2019-02-08T04:04:22.722Z,99.77
2019-02-08T04:06:59.478Z,96.25
2019-02-08T04:09:36.268Z,123.35
2019-02-08T04:12:13.038Z,160.40
2019-02-08T04:14:49.926Z,325.73
2019-02-08T04:17:26.698Z,473.35
2019-02-08T04:20:04.593Z,497.85
2019-02-08T04:22:41.368Z,414.43
2019-02-08T04:25:18.530Z,617.12
2019-02-08T04:27:55.608Z,499.42
2019-02-08T04:30:33.465Z,495.90
2019-02-08T04:33:10.212Z,571.63
2019-02-08T04:35:47.602Z,449.82
2019-02-08T04:38:24.383Z,351.25
2019-02-08T04:41:01.151Z,270.37
2019-02-08T04:43:37.930Z,277.87
2019-02-08T04:46:14.669Z,241.08
2019-02-08T04:48:51.391Z,118.70
2019-02-08T04:51:28.160Z,87.50
2019-02-08T04:54:04.931Z,81.37
2019-02-08T04:56:41.704Z,73.10
2019-02-08T04:59:18.482Z,70.97
2019-02-08T05:01:55.362Z,76.67
2019-02-08T05:04:32.140Z,70.80
2019-02-08T05:07:08.899Z,81.65
2019-02-08T05:09:45.684Z,81.35
2019-02-08T05:12:22.555Z,76.45
2019-02-08T05:14:59.338Z,77.85
2019-02-08T05:17:36.125Z,76.85
2019-02-08T05:20:19.358Z,69.77
2019-02-08T05:22:56.120Z,69.65
2019-02-08T05:25:32.881Z,69.05
2019-02-08T05:28:09.657Z,73.28
2019-02-08T05:30:46.542Z,79.47
2019-02-08T05:33:23.422Z,94.40
2019-02-08T05:36:00.206Z,102.72
2019-02-08T05:38:36.982Z,155.97
2019-02-08T05:41:13.845Z,173.90
2019-02-08T05:43:50.630Z,152.62
2019-02-08T05:46:27.394Z,109.48
2019-02-08T05:49:04.190Z,110.68
2019-02-08T05:51:41.072Z,79.45
2019-02-08T05:54:17.937Z,74.58
2019-02-08T05:56:54.713Z,142.45
2019-02-08T05:59:31.901Z,116.00
2019-02-08T06:02:08.778Z,87.57
2019-02-08T06:04:45.558Z,96.67
2019-02-08T06:07:22.229Z,164.20
2019-02-08T06:09:59.032Z,156.87
2019-02-08T06:12:36.802Z,148.25
2019-02-08T06:15:23.183Z,164.37
2019-02-08T06:17:59.983Z,140.82
2019-02-08T06:20:36.756Z,155.75
2019-02-08T06:23:13.532Z,148.80
2019-02-08T06:25:50.313Z,139.40
2019-02-08T06:28:27.274Z,167.80
2019-02-08T06:31:04.522Z,211.40
2019-02-08T06:33:41.352Z,244.77
2019-02-08T06:36:18.114Z,157.27
2019-02-08T06:38:54.785Z,143.45
2019-02-08T06:41:31.574Z,145.92
2019-02-08T06:44:08.339Z,135.28
2019-02-08T06:46:45.135Z,146.10
2019-02-08T06:49:21.832Z,137.10
2019-02-08T06:51:58.561Z,126.53
2019-02-08T06:54:35.348Z,137.65
2019-02-08T06:57:16.838Z,138.92
2019-02-08T06:59:55.245Z,150.78
2019-02-08T07:02:33.650Z,141.82
2019-02-08T07:05:19.244Z,118.35
2019-02-08T07:08:03.502Z,120.70
2019-02-08T07:10:45.079Z,119.22
2019-02-08T07:13:29.536Z,128.23
2019-02-08T07:16:13.777Z,218.07
2019-02-08T07:18:52.097Z,355.57
2019-02-08T07:21:36.368Z,376.30
2019-02-08T07:24:14.696Z,282.40
2019-02-08T07:27:02.607Z,231.45
2019-02-08T07:29:41.012Z,202.03
2019-02-08T07:32:31.718Z,134.40
2019-02-08T07:35:15.575Z,108.40
2019-02-08T07:38:06.049Z,76.90
2019-02-08T07:41:05.365Z,113.08
2019-02-08T07:43:43.757Z,116.12
2019-02-08T07:46:22.059Z,116.35
2019-02-08T07:49:00.389Z,131.27
2019-02-08T07:51:38.637Z,97.37
2019-02-08T07:54:19.622Z,85.95
2019-02-08T07:57:00.622Z,94.67
2019-02-08T07:59:54.759Z,72.63
2019-02-08T08:02:35.952Z,66.77
2019-02-08T08:05:14.262Z,68.90
2019-02-08T08:08:07.417Z,72.42
2019-02-08T08:10:45.691Z,80.92
2019-02-08T08:13:27.241Z,142.18
2019-02-08T08:16:11.629Z,97.60
2019-02-08T08:19:07.189Z,80.40
2019-02-08T08:21:48.458Z,79.30
2019-02-08T08:24:28.263Z,70.65
2019-02-08T08:27:09.289Z,72.58
2019-02-08T08:29:50.631Z,69.17
2019-02-08T08:32:29.580Z,55.00
2019-02-08T08:35:26.377Z,59.05
2019-02-08T08:38:28.472Z,62.15
2019-02-08T08:41:50.372Z,60.90
2019-02-08T08:44:59.916Z,65.40
2019-02-08T08:47:52.816Z,61.40
2019-02-08T08:50:52.208Z,57.38
2019-02-08T08:54:05.331Z,53.95
2019-02-08T08:57:04.393Z,54.18
2019-02-08T09:00:15.615Z,54.95
2019-02-08T09:03:25.186Z,58.93
2019-02-08T09:06:48.404Z,54.35
2019-02-08T09:09:57.892Z,49.23
2019-02-08T09:13:00.194Z,60.75
2019-02-08T09:15:53.725Z,139.10
2019-02-08T09:19:02.055Z,94.50
2019-02-08T09:22:01.104Z,58.92
2019-02-08T09:25:03.056Z,49.90
2019-02-08T09:31:08.464Z,44.33
2019-02-08T09:34:22.750Z,45.40
2019-02-08T09:37:41.791Z,42.08
2019-02-08T09:40:39.320Z,35.63
2019-02-08T09:43:53.616Z,25.68
2019-02-08T09:46:51.172Z,29.45
2019-02-08T09:49:54.984Z,32.78
2019-02-08T09:52:54.278Z,32.15
2019-02-08T09:55:57.822Z,45.25
2019-02-08T09:59:00.363Z,31.73
2019-02-08T10:02:16.882Z,27.30
2019-02-08T10:05:25.498Z,32.98
2019-02-08T10:08:42.300Z,27.98
2019-02-08T10:11:40.168Z,27.05
2019-02-08T10:15:03.644Z,30.65
2019-02-08T10:18:36.226Z,30.10
2019-02-08T10:21:55.194Z,28.42
2019-02-08T10:24:54.911Z,28.20
2019-02-08T10:28:08.247Z,46.70
2019-02-08T10:31:35.809Z,32.58
2019-02-08T10:35:07.567Z,24.95
2019-02-08T10:38:23.971Z,23.63
2019-02-08T10:41:30.593Z,20.00
2019-02-08T10:44:50.849Z,22.25
2019-02-08T10:47:48.821Z,26.85
2019-02-08T10:51:19.353Z,22.40
2019-02-08T10:54:51.021Z,19.02
2019-02-08T10:57:55.440Z,24.37
2019-02-08T11:01:01.056Z,27.50
2019-02-08T11:04:09.514Z,24.52
2019-02-08T11:07:27.785Z,17.32
2019-02-08T11:10:32.990Z,20.60
2019-02-08T11:13:58.630Z,23.70
2019-02-08T11:16:56.483Z,25.72
2019-02-08T11:19:31.733Z,26.77
2019-02-08T11:22:09.934Z,21.37
2019-02-08T11:24:46.721Z,19.90
2019-02-08T11:27:23.705Z,22.02
2019-02-08T11:30:00.498Z,20.02
2019-02-08T11:32:43.333Z,19.52
2019-02-08T11:35:16.486Z,17.00
2019-02-08T11:37:54.278Z,23.87
2019-02-08T11:40:31.362Z,20.75
2019-02-08T11:43:08.142Z,20.20
2019-02-08T11:45:44.915Z,26.37
2019-02-08T11:48:21.683Z,25.45
2019-02-08T11:50:58.465Z,20.35
2019-02-08T11:53:35.129Z,24.12
2019-02-08T11:56:12.031Z,21.48
2019-02-08T11:58:48.682Z,24.98
2019-02-08T12:01:26.187Z,30.48
2019-02-08T12:04:02.964Z,33.20
2019-02-08T12:06:39.725Z,34.67
2019-02-08T12:09:18.131Z,23.35
2019-02-08T12:11:55.182Z,21.85
2019-02-08T12:14:32.199Z,17.70
2019-02-08T12:17:09.035Z,23.85
2019-02-08T12:19:45.868Z,19.50
2019-02-08T12:22:22.741Z,26.85
2019-02-08T12:24:59.518Z,34.10
2019-02-08T12:27:36.295Z,29.77
2019-02-08T12:30:26.590Z,20.80
2019-02-08T12:33:03.459Z,24.07
2019-02-08T12:35:40.234Z,28.15
2019-02-08T12:38:17.017Z,22.48
2019-02-08T12:40:54.301Z,20.90
2019-02-08T12:43:31.175Z,19.55
2019-02-08T12:46:07.961Z,18.75
2019-02-08T12:48:44.735Z,19.05
2019-02-08T12:51:21.499Z,19.02
2019-02-08T12:53:58.279Z,24.07
2019-02-08T12:56:35.055Z,19.62
2019-02-08T12:59:11.838Z,15.18
2019-02-08T13:01:48.704Z,21.35
2019-02-08T13:04:26.097Z,28.00
2019-02-08T13:07:02.767Z,33.85
2019-02-08T13:09:39.642Z,30.77
2019-02-08T13:12:17.259Z,31.07
2019-02-08T13:14:54.032Z,34.03
2019-02-08T13:17:31.802Z,37.83
2019-02-08T13:20:13.110Z,34.00
2019-02-08T13:22:49.887Z,28.25
2019-02-08T13:25:26.763Z,44.95
2019-02-08T13:28:03.533Z,34.98
2019-02-08T13:30:40.520Z,37.88
2019-02-08T13:33:17.585Z,29.12
2019-02-08T13:35:54.361Z,29.55
2019-02-08T13:38:31.145Z,34.55
2019-02-08T13:41:08.035Z,38.93
2019-02-08T13:43:44.798Z,39.38
2019-02-08T13:46:21.769Z,33.78
2019-02-08T13:48:58.444Z,32.83
2019-02-08T13:51:35.235Z,36.88
2019-02-08T13:54:12.032Z,32.28
2019-02-08T13:56:48.771Z,32.45
2019-02-08T13:59:26.578Z,33.75
2019-02-08T14:02:03.455Z,30.43
2019-02-08T14:04:40.229Z,28.32
2019-02-08T14:07:17.009Z,33.08
2019-02-08T14:09:53.790Z,56.58
2019-02-08T14:12:30.607Z,76.42
2019-02-08T14:15:10.707Z,75.00
2019-02-08T14:17:47.599Z,72.05
2019-02-08T14:20:29.349Z,77.17
2019-02-08T14:23:06.055Z,79.95
2019-02-08T14:25:42.942Z,73.78
2019-02-08T14:28:19.719Z,90.55
2019-02-08T14:30:56.489Z,90.95
2019-02-08T14:33:33.671Z,83.17
2019-02-08T14:36:10.452Z,101.78
2019-02-08T14:38:47.232Z,104.90
2019-02-08T14:41:24.004Z,82.05
2019-02-08T14:44:00.779Z,88.37
2019-02-08T14:46:39.188Z,89.17
2019-02-08T14:49:15.965Z,87.42
2019-02-08T14:51:52.629Z,86.80
2019-02-08T14:54:29.412Z,78.70
2019-02-08T14:57:07.745Z,77.37
2019-02-08T14:59:44.512Z,83.03
2019-02-08T15:02:21.368Z,84.37
2019-02-08T15:04:58.153Z,458.65
2019-02-08T15:07:35.252Z,769.65
2019-02-08T15:10:19.290Z,438.87
2019-02-08T15:12:56.161Z,307.45
2019-02-08T15:15:33.451Z,310.43
2019-02-08T15:18:10.229Z,359.27
2019-02-08T15:20:46.999Z,254.23
2019-02-08T15:23:23.883Z,204.40
2019-02-08T15:26:00.582Z,190.85
2019-02-08T15:28:37.419Z,209.75
2019-02-08T15:31:14.212Z,231.87
2019-02-08T15:33:50.997Z,233.68
2019-02-08T15:36:27.721Z,232.52
2019-02-08T15:39:06.063Z,152.25
2019-02-08T15:41:43.714Z,126.97
2019-02-08T15:44:20.425Z,129.80
2019-02-08T15:46:57.122Z,122.82
2019-02-08T15:49:33.847Z,119.10
2019-02-08T15:52:10.555Z,183.03
2019-02-08T15:54:47.687Z,199.20
2019-02-08T15:57:31.822Z,183.25
2019-02-08T16:00:03.094Z,189.05
2019-02-08T16:02:40.001Z,161.00
2019-02-08T16:05:20.891Z,190.12
2019-02-08T16:08:01.560Z,239.35
2019-02-08T16:10:41.870Z,244.47
2019-02-08T16:13:21.420Z,233.05
2019-02-08T16:15:58.337Z,193.00
2019-02-08T16:18:49.632Z,158.82
2019-02-08T16:21:26.358Z,192.50
2019-02-08T16:24:03.033Z,181.60
2019-02-08T16:26:39.779Z,180.07
2019-02-08T16:29:16.508Z,170.17
2019-02-08T16:31:53.190Z,160.30
2019-02-08T16:34:30.929Z,126.53
2019-02-08T16:37:07.643Z,130.07
2019-02-08T16:39:44.340Z,128.97
2019-02-08T16:42:21.047Z,113.72
2019-02-08T16:44:57.767Z,105.55
2019-02-08T16:47:34.631Z,106.30
2019-02-08T16:50:18.882Z,104.00
2019-02-08T16:52:55.643Z,108.07
2019-02-08T16:55:32.339Z,110.12
2019-02-08T16:58:10.482Z,116.28
2019-02-08T17:00:47.164Z,152.70
2019-02-08T17:03:23.970Z,163.62
2019-02-08T17:06:00.620Z,171.45
2019-02-08T17:08:37.666Z,176.27
2019-02-08T17:11:14.367Z,232.18
2019-02-08T17:13:51.146Z,303.23
2019-02-08T17:16:27.849Z,313.07
2019-02-08T17:19:04.561Z,284.50
2019-02-08T17:21:41.334Z,212.17
2019-02-08T17:24:18.010Z,170.70
2019-02-08T17:26:54.731Z,179.93
2019-02-08T17:29:31.508Z,181.05
2019-02-08T17:32:08.390Z,191.68
2019-02-08T17:34:45.062Z,169.93
2019-02-08T17:37:22.039Z,182.37
2019-02-08T17:39:58.866Z,184.20
2019-02-08T17:42:35.684Z,189.85
2019-02-08T17:45:16.087Z,211.92
2019-02-08T17:47:53.745Z,223.20
2019-02-08T17:50:30.725Z,233.68
2019-02-08T17:53:07.601Z,221.68
2019-02-08T17:55:44.364Z,236.05
2019-02-08T17:58:21.344Z,231.65
2019-02-08T18:00:59.062Z,231.57
2019-02-08T18:03:35.933Z,207.37
2019-02-08T18:06:12.703Z,210.10
2019-02-08T18:08:49.481Z,230.10
2019-02-08T18:11:26.657Z,216.88
2019-02-08T18:14:03.436Z,219.10
2019-02-08T18:16:40.222Z,208.28
2019-02-08T18:19:16.999Z,231.40
2019-02-08T18:21:53.873Z,218.40
2019-02-08T18:24:30.959Z,202.03
2019-02-08T18:27:07.735Z,208.30
2019-02-08T18:29:44.504Z,207.43
2019-02-08T18:32:22.397Z,215.40
2019-02-08T18:34:59.174Z,218.00
2019-02-08T18:37:35.948Z,213.60
2019-02-08T18:40:25.116Z,221.33
2019-02-08T18:43:02.113Z,218.42
2019-02-08T18:45:39.281Z,187.45
2019-02-08T18:48:16.254Z,203.58
2019-02-08T18:50:55.053Z,189.90
2019-02-08T18:53:31.793Z,192.45
2019-02-08T18:56:08.532Z,180.03
2019-02-08T18:58:45.261Z,165.20
2019-02-08T19:01:21.943Z,183.42
2019-02-08T19:04:00.636Z,175.35
2019-02-08T19:06:37.485Z,181.75
2019-02-08T19:09:14.188Z,179.53
2019-02-08T19:11:51.334Z,177.82
2019-02-08T19:14:28.047Z,176.57
2019-02-08T19:17:04.774Z,171.47
2019-02-08T19:19:41.502Z,173.32
2019-02-08T19:22:18.206Z,177.62
2019-02-08T19:24:54.974Z,174.20
2019-02-08T19:27:31.676Z,191.75
2019-02-08T19:30:13.516Z,183.35
2019-02-08T19:35:26.492Z,200.10
2019-02-08T19:38:03.185Z,197.47
2019-02-08T19:40:49.342Z,197.43
2019-02-08T19:43:26.287Z,226.77
2019-02-08T19:46:03.003Z,282.77
2019-02-08T19:48:39.891Z,193.28
2019-02-08T19:51:16.705Z,226.32
2019-02-08T19:53:53.586Z,281.60
2019-02-08T19:56:30.872Z,229.68
2019-02-08T19:59:07.649Z,308.30
2019-02-08T20:01:45.239Z,342.18
2019-02-08T20:04:22.220Z,250.87
2019-02-08T20:06:58.988Z,208.25
2019-02-08T20:09:35.794Z,179.63
2019-02-08T20:12:12.644Z,225.20
2019-02-08T20:14:49.425Z,276.70
2019-02-08T20:17:26.307Z,262.72
2019-02-08T20:20:03.065Z,219.43
2019-02-08T20:22:39.951Z,183.52
2019-02-08T20:25:34.958Z,162.97
2019-02-08T20:28:11.840Z,158.93
2019-02-08T20:30:48.615Z,162.20
2019-02-08T20:33:26.340Z,155.15
2019-02-08T20:36:02.992Z,146.93
2019-02-08T20:38:39.670Z,142.53
2019-02-08T20:41:16.483Z,139.52
2019-02-08T20:43:53.242Z,133.72
2019-02-08T20:46:29.968Z,132.78
2019-02-08T20:49:07.674Z,130.45
2019-02-08T20:51:44.563Z,134.37
2019-02-08T20:54:21.333Z,139.62
2019-02-08T20:56:59.157Z,143.13
2019-02-08T20:59:35.952Z,148.93
2019-02-08T21:02:12.834Z,131.80
2019-02-08T21:04:49.525Z,130.32
2019-02-08T21:07:26.254Z,139.92
2019-02-08T21:10:03.268Z,143.05
2019-02-08T21:12:40.476Z,152.75
2019-02-08T21:15:19.957Z,140.55
2019-02-08T21:17:56.670Z,153.40
2019-02-08T21:20:33.484Z,157.27
2019-02-08T21:23:10.473Z,154.75
2019-02-08T21:25:52.267Z,160.67
2019-02-08T21:28:25.687Z,165.20
2019-02-08T21:31:02.535Z,159.65
2019-02-08T21:33:39.412Z,152.62
2019-02-08T21:36:16.190Z,152.53
2019-02-08T21:38:52.958Z,181.52
2019-02-08T21:41:29.749Z,209.10
2019-02-08T21:44:06.430Z,210.78
2019-02-08T21:46:43.227Z,599.98
2019-02-08T21:49:19.965Z,459.98
2019-02-08T21:51:56.843Z,221.05
2019-02-08T21:54:33.549Z,211.05
2019-02-08T21:57:10.258Z,193.47
2019-02-08T21:59:47.069Z,164.70
2019-02-08T22:02:24.007Z,276.75
2019-02-08T22:05:00.702Z,381.98
2019-02-08T22:07:37.477Z,365.00
2019-02-08T22:10:17.429Z,285.67
2019-02-08T22:12:54.208Z,208.35
2019-02-08T22:15:35.318Z,359.15
2019-02-08T22:18:13.745Z,202.97
2019-02-08T22:20:51.216Z,183.90
2019-02-08T22:23:28.082Z,332.65
2019-02-08T22:26:04.855Z,399.62
2019-02-08T22:28:41.633Z,397.65
2019-02-08T22:31:18.414Z,434.90
2019-02-08T22:33:55.189Z,395.07
2019-02-08T22:36:32.068Z,346.80
2019-02-08T22:39:09.124Z,386.10
2019-02-08T22:41:46.132Z,347.12
2019-02-08T22:44:22.910Z,298.23
2019-02-08T22:46:59.786Z,221.87
2019-02-08T22:49:36.562Z,210.05
2019-02-08T22:52:13.638Z,162.53
2019-02-08T22:54:50.405Z,154.50
2019-02-08T22:57:27.191Z,149.40
2019-02-08T23:00:05.098Z,153.40
2019-02-08T23:02:44.318Z,148.82
2019-02-08T23:05:21.110Z,133.35
2019-02-08T23:07:57.875Z,146.68
2019-02-08T23:10:34.649Z,137.30
2019-02-08T23:13:11.726Z,132.90
2019-02-08T23:15:48.629Z,134.97
2019-02-08T23:18:26.520Z,145.70
2019-02-08T23:21:03.703Z,133.63
2019-02-08T23:23:40.584Z,142.53
2019-02-08T23:26:17.353Z,150.62
2019-02-08T23:28:54.119Z,155.00
2019-02-08T23:31:30.997Z,149.60
2019-02-08T23:34:07.993Z,136.95
2019-02-08T23:36:44.757Z,146.62
2019-02-08T23:39:21.544Z,151.50
2019-02-08T23:41:58.406Z,141.75
2019-02-08T23:44:35.197Z,162.62
2019-02-08T23:47:11.973Z,165.82
2019-02-08T23:49:48.630Z,140.20
2019-02-08T23:52:25.513Z,126.62
2019-02-08T23:55:02.302Z,147.00
2019-02-08T23:57:39.490Z,157.50
